Time;durP1;ratioP1;P1;durP2;ratioP2;P2;SDS_P1;SDS_P2;PMS_P1;PMS_P2;Temp;Humidity;BMP_temperature;BMP_pressure;BME280_temperature;BME280_humidity;BME280_pressure;Samples;Min_cycle;Max_cycle;Signal;HPM_P1;HPM_P2
2023/09/27 00:01:05;;;;;;;21.23;15.18;;;;;;;16.11;100.00;101835.66;5042672;28;20032;-73
2023/09/27 00:03:31;;;;;;;23.02;16.23;;;;;;;16.14;100.00;101846.97;5045627;28;20127;-73
2023/09/27 00:05:56;;;;;;;19.63;14.50;;;;;;;16.15;100.00;101851.44;5046542;28;20044;-73
2023/09/27 00:08:22;;;;;;;21.67;15.07;;;;;;;16.16;100.00;101849.41;5041026;28;20098;-76
2023/09/27 00:10:47;;;;;;;22.30;15.00;;;;;;;16.17;100.00;101851.00;5040715;28;20545;-72
2023/09/27 00:13:12;;;;;;;21.25;15.05;;;;;;;16.15;100.00;101856.25;5041003;28;20082;-73
2023/09/27 00:15:38;;;;;;;22.13;15.70;;;;;;;16.13;100.00;101855.81;5035032;28;20032;-73
2023/09/27 00:18:04;;;;;;;26.17;16.20;;;;;;;16.12;100.00;101852.19;5043151;28;20030;-76
2023/09/27 00:20:30;;;;;;;22.92;14.73;;;;;;;16.09;100.00;101847.34;5047783;28;20381;-76
2023/09/27 00:22:55;;;;;;;20.63;14.75;;;;;;;16.11;100.00;101852.63;5046422;28;20029;-76
2023/09/27 00:25:21;;;;;;;21.83;14.02;;;;;;;16.09;100.00;101849.38;5048807;28;20116;-76
2023/09/27 00:27:46;;;;;;;21.85;16.38;;;;;;;16.05;100.00;101855.78;5043094;28;20036;-76
2023/09/27 00:30:15;;;;;;;20.98;14.07;;;;;;;16.04;100.00;101859.81;5045709;28;20044;-76
2023/09/27 00:32:46;;;;;;;23.42;16.20;;;;;;;15.99;100.00;101859.38;5042211;28;20510;-76
2023/09/27 00:35:19;;;;;;;23.05;15.93;;;;;;;16.00;100.00;101864.63;5061244;28;20469;-76
2023/09/27 00:37:48;;;;;;;20.50;14.65;;;;;;;15.98;100.00;101864.22;5036447;28;20021;-76
2023/09/27 00:40:15;;;;;;;25.33;14.77;;;;;;;15.96;100.00;101866.63;5032646;28;20030;-76
2023/09/27 00:42:40;;;;;;;24.23;15.35;;;;;;;15.92;100.00;101868.59;5025118;28;20492;-74
2023/09/27 00:45:07;;;;;;;22.08;15.82;;;;;;;15.92;100.00;101882.72;5033433;28;20032;-74
2023/09/27 00:47:33;;;;;;;25.73;14.55;;;;;;;15.88;100.00;101866.97;5036178;28;20474;-74
2023/09/27 00:49:59;;;;;;;25.95;15.15;;;;;;;15.85;100.00;101862.88;5026406;28;20025;-74
2023/09/27 00:52:24;;;;;;;21.52;14.48;;;;;;;15.84;100.00;101849.97;5024944;28;20091;-74
2023/09/27 00:54:51;;;;;;;19.50;14.95;;;;;;;15.84;100.00;101847.16;5033932;28;20037;-74
2023/09/27 00:57:17;;;;;;;20.58;13.90;;;;;;;15.81;100.00;101854.41;5019144;28;20032;-74
2023/09/27 00:59:43;;;;;;;24.75;16.42;;;;;;;15.79;100.00;101848.34;5024679;28;20390;-74
2023/09/27 01:02:09;;;;;;;23.35;14.18;;;;;;;15.72;100.00;101838.97;5015688;28;20064;-74
2023/09/27 01:04:34;;;;;;;22.73;15.52;;;;;;;15.73;100.00;101837.78;5021007;28;20107;-74
2023/09/27 01:07:00;;;;;;;24.25;16.60;;;;;;;15.71;100.00;101851.47;5029032;28;20608;-74
2023/09/27 01:09:25;;;;;;;22.23;16.15;;;;;;;15.69;100.00;101848.22;5026035;28;20083;-77
2023/09/27 01:11:51;;;;;;;22.13;15.50;;;;;;;15.67;100.00;101851.41;5032531;28;20394;-74
2023/09/27 01:14:17;;;;;;;25.58;16.73;;;;;;;15.47;100.00;101845.16;5024536;28;20041;-75
2023/09/27 01:16:42;;;;;;;20.70;15.68;;;;;;;15.50;100.00;101850.06;5042710;28;20482;-74
2023/09/27 01:19:08;;;;;;;21.35;14.40;;;;;;;15.52;100.00;101847.66;5019388;28;20073;-74
2023/09/27 01:21:33;;;;;;;23.77;16.08;;;;;;;15.38;100.00;101847.50;5020087;28;20044;-75
2023/09/27 01:23:59;;;;;;;25.38;16.98;;;;;;;15.40;100.00;101857.19;5020995;28;20104;-75
2023/09/27 01:26:25;;;;;;;19.88;15.30;;;;;;;15.31;100.00;101845.44;5017005;28;20037;-75
2023/09/27 01:28:50;;;;;;;20.63;15.20;;;;;;;15.35;100.00;101845.47;5023626;28;20048;-76
2023/09/27 01:31:16;;;;;;;23.00;16.08;;;;;;;15.41;100.00;101839.09;5033614;28;20029;-76
2023/09/27 01:33:41;;;;;;;23.10;16.02;;;;;;;15.49;100.00;101834.31;5037288;28;20112;-76
2023/09/27 01:36:07;;;;;;;24.25;15.75;;;;;;;15.52;100.00;101827.91;5031355;28;20064;-76
2023/09/27 01:38:33;;;;;;;27.65;17.23;;;;;;;15.52;100.00;101832.75;5024027;28;20068;-76
2023/09/27 01:40:59;;;;;;;22.95;15.48;;;;;;;15.52;100.00;101838.38;5028181;28;20060;-76
2023/09/27 01:43:24;;;;;;;26.60;16.35;;;;;;;15.48;100.00;101843.97;5027133;28;20469;-76
2023/09/27 01:45:50;;;;;;;23.30;15.10;;;;;;;15.48;100.00;101846.00;5029775;28;20064;-76
2023/09/27 01:48:16;;;;;;;23.85;16.35;;;;;;;15.44;100.00;101831.84;5034465;28;20054;-76
2023/09/27 01:50:41;;;;;;;29.02;18.08;;;;;;;15.38;100.00;101839.84;5027000;28;20102;-76
2023/09/27 01:53:07;;;;;;;26.20;17.13;;;;;;;15.40;100.00;101839.47;5025413;28;20043;-76
2023/09/27 01:55:33;;;;;;;25.73;16.98;;;;;;;15.40;100.00;101842.28;5026390;28;20068;-77
2023/09/27 01:58:00;;;;;;;27.02;18.55;;;;;;;15.38;100.00;101844.69;5029343;28;20033;-76
2023/09/27 02:00:25;;;;;;;21.92;16.42;;;;;;;15.31;100.00;101834.16;5027954;28;20025;-76
2023/09/27 02:02:55;;;;;;;24.35;16.70;;;;;;;15.33;100.00;101831.75;5032420;28;20107;-76
2023/09/27 02:05:21;;;;;;;24.05;16.45;;;;;;;15.32;100.00;101832.13;5028244;28;20043;-76
2023/09/27 02:07:46;;;;;;;22.95;15.57;;;;;;;15.27;100.00;101832.50;5026880;28;20022;-77
2023/09/27 02:10:12;;;;;;;21.42;14.75;;;;;;;15.28;100.00;101834.91;5032229;28;20041;-76
2023/09/27 02:12:38;;;;;;;21.73;15.35;;;;;;;15.25;100.00;101830.84;5028146;28;20037;-76
2023/09/27 02:15:08;;;;;;;24.27;15.57;;;;;;;15.24;100.00;101831.22;5036031;28;20126;-76
2023/09/27 02:17:35;;;;;;;22.30;15.30;;;;;;;15.20;100.00;101834.03;5035978;28;20031;-76
2023/09/27 02:20:07;;;;;;;22.08;16.38;;;;;;;15.18;100.00;101839.25;5034636;28;20024;-76
2023/09/27 02:22:36;;;;;;;21.15;15.38;;;;;;;15.18;100.00;101844.09;5023133;28;20524;-76
2023/09/27 02:25:02;;;;;;;23.45;15.27;;;;;;;15.14;100.00;101835.59;5022382;28;20045;-77
2023/09/27 02:27:28;;;;;;;24.27;15.70;;;;;;;15.12;100.00;101840.78;5026044;28;20040;-76
2023/09/27 02:29:53;;;;;;;21.73;15.77;;;;;;;15.09;100.00;101838.72;5031003;28;20029;-76
2023/09/27 02:32:18;;;;;;;21.75;15.68;;;;;;;15.07;100.00;101858.03;5030792;28;20107;-76
2023/09/27 02:34:44;;;;;;;23.33;16.23;;;;;;;15.03;100.00;101860.00;5024361;28;20037;-76
2023/09/27 02:37:10;;;;;;;28.25;16.75;;;;;;;15.04;100.00;101862.44;5022811;28;20040;-76
2023/09/27 02:39:35;;;;;;;20.30;14.35;;;;;;;14.98;100.00;101849.09;5018414;28;20037;-72
2023/09/27 02:42:01;;;;;;;23.70;15.10;;;;;;;14.98;100.00;101851.91;5024985;28;20109;-72
2023/09/27 02:44:26;;;;;;;22.88;15.15;;;;;;;14.97;100.00;101858.75;5025206;28;20179;-72
2023/09/27 02:46:53;;;;;;;23.90;16.42;;;;;;;14.93;100.00;101864.34;5018933;28;20397;-72
2023/09/27 02:49:19;;;;;;;22.02;15.25;;;;;;;14.93;100.00;101880.44;5022614;28;20036;-74
2023/09/27 02:51:47;;;;;;;24.30;16.17;;;;;;;14.90;100.00;101886.84;5032088;28;20439;-72
2023/09/27 02:54:14;;;;;;;22.38;15.60;;;;;;;14.90;100.00;101878.38;5033129;28;20029;-71
2023/09/27 02:56:40;;;;;;;20.35;14.57;;;;;;;14.87;100.00;101865.88;5021077;28;20499;-73
2023/09/27 02:59:06;;;;;;;23.52;15.77;;;;;;;14.86;100.00;101863.44;5016122;28;20033;-72
2023/09/27 03:01:32;;;;;;;26.02;16.17;;;;;;;14.84;100.00;101867.47;5017557;28;20025;-73
2023/09/27 03:03:58;;;;;;;23.65;16.40;;;;;;;14.82;100.00;101864.22;5011789;28;20446;-74
2023/09/27 03:06:23;;;;;;;23.25;16.17;;;;;;;14.78;100.00;101854.91;5015191;28;20096;-72
2023/09/27 03:08:49;;;;;;;21.73;14.90;;;;;;;14.77;100.00;101855.28;5014772;28;20079;-73
2023/09/27 03:11:15;;;;;;;23.10;17.10;;;;;;;14.76;100.00;101859.31;5011042;28;20033;-73
2023/09/27 03:13:44;;;;;;;23.23;16.13;;;;;;;14.72;100.00;101850.78;5021933;28;20027;-71
2023/09/27 03:16:10;;;;;;;21.38;15.95;;;;;;;14.71;100.00;101854.78;5026457;28;20029;-71
2023/09/27 03:18:36;;;;;;;21.13;15.15;;;;;;;14.69;100.00;101853.56;5025136;28;20775;-72
2023/09/27 03:21:02;;;;;;;22.70;16.27;;;;;;;14.68;100.00;101858.38;5014878;28;20030;-72
2023/09/27 03:23:27;;;;;;;23.30;16.30;;;;;;;14.66;100.00;101855.13;5015503;28;20038;-72
2023/09/27 03:25:54;;;;;;;22.35;15.95;;;;;;;14.64;100.00;101851.88;5017900;28;20049;-74
2023/09/27 03:28:19;;;;;;;26.30;16.95;;;;;;;14.61;100.00;101856.28;5014539;28;20063;-73
2023/09/27 03:30:46;;;;;;;23.65;16.05;;;;;;;14.61;100.00;101852.66;5013199;28;20448;-71
2023/09/27 03:33:12;;;;;;;25.50;18.10;;;;;;;14.58;100.00;101853.41;5015651;28;20095;-72
2023/09/27 03:35:37;;;;;;;23.98;15.80;;;;;;;14.56;100.00;101852.97;5013501;28;20084;-72
2023/09/27 03:38:03;;;;;;;20.90;15.70;;;;;;;14.55;100.00;101848.53;5014897;28;20033;-72
2023/09/27 03:40:28;;;;;;;25.98;16.42;;;;;;;14.50;100.00;101841.19;5020547;28;20108;-72
2023/09/27 03:42:53;;;;;;;25.48;15.98;;;;;;;14.52;100.00;101855.72;5023853;28;20048;-73
2023/09/27 03:45:19;;;;;;;23.45;15.18;;;;;;;14.49;100.00;101850.06;5028576;28;20033;-72
2023/09/27 03:47:47;;;;;;;21.20;15.75;;;;;;;14.47;100.00;101858.06;5013917;28;20036;-74
2023/09/27 03:50:13;;;;;;;20.63;15.50;;;;;;;14.47;100.00;101841.16;5013005;28;20394;-76
2023/09/27 03:52:41;;;;;;;20.38;15.43;;;;;;;14.44;100.00;101846.38;5013317;28;20040;-76
2023/09/27 03:55:08;;;;;;;23.42;16.17;;;;;;;14.40;100.00;101842.69;5021404;28;20064;-76
2023/09/27 03:57:33;;;;;;;20.38;15.70;;;;;;;14.39;100.00;101835.41;5010663;28;20540;-75
2023/09/27 03:59:59;;;;;;;21.48;15.15;;;;;;;14.39;100.00;101843.06;5014414;28;20036;-75
2023/09/27 04:02:25;;;;;;;28.13;15.30;;;;;;;14.36;100.00;101858.72;5019434;28;20041;-75
2023/09/27 04:04:50;;;;;;;23.92;16.30;;;;;;;14.36;100.00;101870.00;5025364;28;20469;-75
2023/09/27 04:07:18;;;;;;;26.27;14.57;;;;;;;14.33;100.00;101856.66;5012766;28;20036;-75
2023/09/27 04:09:44;;;;;;;24.73;15.77;;;;;;;14.34;100.00;101860.31;5015403;28;20385;-75
2023/09/27 04:12:11;;;;;;;21.33;15.00;;;;;;;14.33;100.00;101853.03;5013518;28;20070;-75
2023/09/27 04:14:37;;;;;;;23.63;15.77;;;;;;;14.29;100.00;101855.78;5022149;28;20069;-75
2023/09/27 04:17:03;;;;;;;24.80;15.65;;;;;;;14.28;100.00;101862.63;5019279;28;20507;-75
2023/09/27 04:19:28;;;;;;;23.98;16.02;;;;;;;14.28;100.00;101867.47;5016507;28;20017;-75
2023/09/27 04:21:54;;;;;;;21.63;15.77;;;;;;;14.27;100.00;101861.00;5024934;28;20082;-75
2023/09/27 04:24:20;;;;;;;21.45;16.23;;;;;;;14.22;100.00;101853.69;5037627;28;20033;-74
2023/09/27 04:26:45;;;;;;;22.90;15.80;;;;;;;14.23;100.00;101860.16;5017617;28;20042;-74
2023/09/27 04:29:10;;;;;;;22.95;15.45;;;;;;;14.21;100.00;101873.78;5016922;28;20072;-74
2023/09/27 04:31:36;;;;;;;22.73;15.63;;;;;;;14.19;100.00;101867.72;5020384;28;20120;-74
2023/09/27 04:34:01;;;;;;;24.00;15.35;;;;;;;14.17;100.00;101862.47;5015254;28;20026;-75
2023/09/27 04:36:26;;;;;;;25.52;17.27;;;;;;;14.17;100.00;101867.28;5016305;28;20104;-74
2023/09/27 04:38:53;;;;;;;19.75;14.48;;;;;;;14.16;100.00;101874.09;5016400;28;20037;-74
2023/09/27 04:41:19;;;;;;;22.05;14.32;;;;;;;14.15;100.00;101880.94;5030022;28;20029;-74
2023/09/27 04:43:44;;;;;;;22.75;15.30;;;;;;;14.12;100.00;101884.50;5019515;28;20458;-74
2023/09/27 04:46:17;;;;;;;20.83;14.75;;;;;;;14.11;100.00;101880.06;5013519;28;20030;-74
2023/09/27 04:48:43;;;;;;;21.42;15.13;;;;;;;14.09;100.00;101883.25;5015187;28;20039;-76
2023/09/27 04:51:09;;;;;;;22.27;14.95;;;;;;;14.11;100.00;101894.16;5021970;28;20030;-76
2023/09/27 04:53:37;;;;;;;22.83;15.88;;;;;;;14.08;100.00;101886.44;5021219;28;20037;-76
2023/09/27 04:56:04;;;;;;;17.45;13.65;;;;;;;14.07;100.00;101879.19;5026382;28;20547;-75
2023/09/27 04:58:30;;;;;;;23.38;15.25;;;;;;;14.08;100.00;101894.88;5028522;28;20458;-76
2023/09/27 05:00:56;;;;;;;21.63;14.15;;;;;;;14.01;100.00;101890.75;5025313;28;20029;-74
2023/09/27 05:03:21;;;;;;;21.58;14.82;;;;;;;14.03;100.00;101902.47;5028370;28;20043;-74
2023/09/27 05:05:47;;;;;;;26.20;16.10;;;;;;;14.01;100.00;101899.22;5025395;28;20051;-72
2023/09/27 05:08:12;;;;;;;20.45;14.77;;;;;;;14.00;100.00;101910.88;5018755;28;20505;-72
2023/09/27 05:10:38;;;;;;;21.17;14.77;;;;;;;14.01;100.00;101898.41;5020153;28;20367;-72
2023/09/27 05:13:03;;;;;;;20.10;14.23;;;;;;;13.99;100.00;101901.59;5025565;28;20583;-74
2023/09/27 05:15:31;;;;;;;23.42;15.40;;;;;;;13.98;100.00;101899.97;5030289;28;20536;-73
2023/09/27 05:17:57;;;;;;;24.83;16.17;;;;;;;13.97;100.00;101894.72;5021220;28;20519;-73
2023/09/27 05:20:22;;;;;;;26.88;16.48;;;;;;;13.97;100.00;101898.34;5015440;28;20030;-74
2023/09/27 05:22:48;;;;;;;23.13;16.27;;;;;;;13.98;100.00;101899.97;5026382;28;20126;-72
2023/09/27 05:25:14;;;;;;;25.27;16.10;;;;;;;13.97;100.00;101886.28;5017042;28;20049;-74
2023/09/27 05:27:40;;;;;;;27.42;17.13;;;;;;;13.99;100.00;101883.88;5018807;28;20048;-73
2023/09/27 05:30:10;;;;;;;25.30;15.63;;;;;;;13.97;100.00;101887.06;5023471;28;20406;-76
2023/09/27 05:32:35;;;;;;;22.45;16.52;;;;;;;13.97;100.00;101892.69;5010746;28;20123;-72
2023/09/27 05:35:01;;;;;;;22.95;16.35;;;;;;;13.98;100.00;101883.09;5021768;28;20055;-72
2023/09/27 05:37:28;;;;;;;26.23;16.33;;;;;;;13.97;100.00;101875.81;5020656;28;20123;-71
2023/09/27 05:39:54;;;;;;;22.67;16.17;;;;;;;13.98;100.00;101871.81;5017429;28;20667;-71
2023/09/27 05:42:19;;;;;;;22.23;15.95;;;;;;;13.96;100.00;101879.84;5020189;28;20156;-71
2023/09/27 05:44:45;;;;;;;26.80;17.02;;;;;;;13.97;100.00;101891.91;5021199;28;20037;-72
2023/09/27 05:47:10;;;;;;;23.63;17.00;;;;;;;13.98;100.00;101882.28;5014519;28;20091;-72
2023/09/27 05:49:36;;;;;;;23.30;15.95;;;;;;;14.01;100.00;101890.75;5014590;28;20033;-74
2023/09/27 05:52:02;;;;;;;25.13;16.25;;;;;;;13.95;100.00;101886.63;5014000;28;20730;-76
2023/09/27 05:54:27;;;;;;;24.70;16.08;;;;;;;13.97;100.00;101884.25;5021402;28;20053;-73
2023/09/27 05:56:54;;;;;;;23.77;13.90;;;;;;;13.86;100.00;101882.47;5023543;28;20100;-74
2023/09/27 05:59:21;;;;;;;24.05;17.25;;;;;;;13.88;100.00;101889.34;5014735;28;20036;-74
2023/09/27 06:01:47;;;;;;;25.98;16.08;;;;;;;13.95;100.00;101883.00;5014627;28;20481;-72
2023/09/27 06:04:12;;;;;;;26.13;19.00;;;;;;;13.81;100.00;101872.34;5017649;28;20025;-73
2023/09/27 06:06:39;;;;;;;23.15;17.42;;;;;;;13.88;100.00;101871.66;5024754;28;20025;-73
2023/09/27 06:09:09;;;;;;;23.70;16.35;;;;;;;13.97;100.00;101875.81;5017593;28;20489;-76
2023/09/27 06:11:35;;;;;;;23.88;16.70;;;;;;;14.01;100.00;101859.78;5023685;28;20025;-76
2023/09/27 06:14:00;;;;;;;28.27;17.10;;;;;;;14.00;100.00;101866.63;5025172;28;20064;-75
2023/09/27 06:16:26;;;;;;;24.73;15.50;;;;;;;13.96;100.00;101862.94;5025105;28;20383;-75
2023/09/27 06:18:51;;;;;;;24.48;17.58;;;;;;;13.94;100.00;101854.06;5016005;28;20088;-76
2023/09/27 06:21:17;;;;;;;27.40;16.73;;;;;;;13.83;100.00;101850.28;5015534;28;20030;-76
2023/09/27 06:23:42;;;;;;;28.10;18.00;;;;;;;13.86;100.00;101857.94;5025287;28;20052;-76
2023/09/27 06:26:09;;;;;;;25.50;16.40;;;;;;;13.87;100.00;101856.78;5018477;28;20037;-76
2023/09/27 06:28:37;;;;;;;23.75;17.35;;;;;;;13.92;100.00;101862.06;5018813;28;20079;-76
2023/09/27 06:31:06;;;;;;;26.02;16.27;;;;;;;13.91;100.00;101866.06;5017589;28;20037;-76
2023/09/27 06:33:32;;;;;;;25.02;16.73;;;;;;;13.94;100.00;101870.94;5014252;28;20536;-76
2023/09/27 06:35:59;;;;;;;22.23;15.10;;;;;;;13.99;100.00;101881.06;5017583;28;20398;-74
2023/09/27 06:38:25;;;;;;;22.65;15.02;;;;;;;14.07;100.00;101879.19;5009820;28;20080;-75
2023/09/27 06:40:51;;;;;;;23.33;15.63;;;;;;;14.12;100.00;101881.69;5010536;28;20042;-75
2023/09/27 06:43:16;;;;;;;18.67;15.38;;;;;;;14.19;100.00;101881.81;5011674;28;20371;-75
2023/09/27 06:45:42;;;;;;;23.73;15.43;;;;;;;14.31;100.00;101873.13;5008787;28;20420;-75
2023/09/27 06:48:08;;;;;;;22.15;15.25;;;;;;;14.24;100.00;101885.09;5016415;28;20034;-74
2023/09/27 06:50:33;;;;;;;19.55;13.80;;;;;;;14.23;100.00;101883.47;5014039;28;20075;-75
2023/09/27 06:52:59;;;;;;;29.38;20.65;;;;;;;14.28;100.00;101887.97;5012790;28;20045;-74
2023/09/27 06:55:24;;;;;;;28.88;18.55;;;;;;;14.23;100.00;101889.13;5028653;28;20029;-74
2023/09/27 06:57:52;;;;;;;33.08;20.75;;;;;;;14.22;100.00;101893.09;5024185;28;20018;-73
2023/09/27 07:00:24;;;;;;;32.60;19.17;;;;;;;14.19;100.00;101893.06;5022183;28;20029;-74
2023/09/27 07:02:53;;;;;;;29.33;20.10;;;;;;;14.23;100.00;101888.31;5019078;28;20104;-74
2023/09/27 07:05:21;;;;;;;33.50;21.63;;;;;;;14.21;100.00;101890.69;5019927;28;20061;-75
2023/09/27 07:07:47;;;;;;;36.53;23.58;;;;;;;14.26;100.00;101898.81;5021915;28;20030;-75
2023/09/27 07:10:12;;;;;;;35.30;21.67;;;;;;;14.25;100.00;101897.16;5024580;28;20033;-74
2023/09/27 07:12:38;;;;;;;39.08;22.15;;;;;;;14.31;100.00;101895.66;5029490;28;20034;-74
2023/09/27 07:15:14;;;;;;;31.60;19.70;;;;;;;14.36;100.00;101903.00;5022939;28;20061;-75
2023/09/27 07:17:40;;;;;;;35.97;22.45;;;;;;;14.38;100.00;101901.41;5022339;28;20021;-75
2023/09/27 07:20:20;;;;;;;37.40;22.73;;;;;;;14.42;100.00;101907.09;5012906;28;20386;-76
2023/09/27 07:22:47;;;;;;;39.85;23.60;;;;;;;14.46;100.00;101898.69;5026665;28;20022;-76
2023/09/27 07:25:16;;;;;;;41.15;23.70;;;;;;;14.49;100.00;101906.41;5027262;28;20045;-76
2023/09/27 07:27:42;;;;;;;34.60;23.75;;;;;;;14.50;100.00;101903.16;5033971;28;20041;-76
2023/09/27 07:30:11;;;;;;;41.40;24.98;;;;;;;14.51;100.00;101918.91;5024515;28;20028;-76
2023/09/27 07:32:39;;;;;;;41.10;23.10;;;;;;;14.52;100.00;101920.50;5046510;28;20126;-76
2023/09/27 07:35:08;;;;;;;36.50;22.50;;;;;;;14.55;100.00;101916.16;5025188;28;20037;-76
2023/09/27 07:37:35;;;;;;;35.45;23.08;;;;;;;14.60;100.00;101913.00;5033479;28;20033;-76
2023/09/27 07:40:00;;;;;;;39.38;25.30;;;;;;;14.59;100.00;101912.22;5018899;28;20509;-75
2023/09/27 07:42:26;;;;;;;36.25;24.45;;;;;;;14.64;100.00;101908.25;5032468;28;20236;-75
2023/09/27 07:44:51;;;;;;;44.05;25.73;;;;;;;14.60;100.00;101907.38;5030656;28;20052;-75
2023/09/27 07:47:16;;;;;;;37.40;24.33;;;;;;;14.66;100.00;101914.31;5031199;28;20104;-78
2023/09/27 07:49:42;;;;;;;41.03;24.27;;;;;;;14.67;100.00;101921.56;5037252;28;20067;-75
2023/09/27 07:52:07;;;;;;;38.55;25.02;;;;;;;14.72;100.00;101921.25;5037091;28;20108;-75
2023/09/27 07:54:33;;;;;;;36.83;23.83;;;;;;;14.78;100.00;101904.81;5031137;28;20542;-75
2023/09/27 07:56:59;;;;;;;42.38;25.42;;;;;;;14.88;100.00;101903.31;5027546;28;20030;-75
2023/09/27 07:59:25;;;;;;;46.38;26.10;;;;;;;14.93;100.00;101897.38;5027768;28;20021;-75
2023/09/27 08:01:50;;;;;;;43.95;25.63;;;;;;;14.98;100.00;101905.47;5019315;28;20384;-76
2023/09/27 08:04:16;;;;;;;37.75;27.17;;;;;;;15.01;100.00;101910.34;5024158;28;20029;-75
2023/09/27 08:06:41;;;;;;;47.15;27.42;;;;;;;15.07;100.00;101905.19;5027015;28;20506;-75
2023/09/27 08:09:07;;;;;;;49.70;28.98;;;;;;;15.16;100.00;101900.06;5017160;28;20137;-75
2023/09/27 08:11:32;;;;;;;47.00;28.95;;;;;;;15.27;100.00;101894.53;5031436;28;20022;-75
2023/09/27 08:13:58;;;;;;;45.65;25.00;;;;;;;15.36;100.00;101903.50;5022229;28;20029;-75
2023/09/27 08:16:26;;;;;;;47.30;28.42;;;;;;;15.43;100.00;101903.56;5036342;28;20028;-75
2023/09/27 08:18:51;;;;;;;41.72;27.52;;;;;;;15.49;100.00;101898.41;5034299;28;20032;-75
2023/09/27 08:21:17;;;;;;;46.30;26.98;;;;;;;15.56;100.00;101899.28;5021813;28;20456;-75
2023/09/27 08:23:42;;;;;;;40.88;28.23;;;;;;;15.67;100.00;101901.41;5030413;28;20033;-75
2023/09/27 08:26:12;;;;;;;44.30;28.30;;;;;;;15.77;100.00;101909.19;5037127;28;20080;-75
2023/09/27 08:28:37;;;;;;;44.13;27.95;;;;;;;15.79;100.00;101920.91;5031479;28;20033;-74
2023/09/27 08:31:04;;;;;;;50.90;28.75;;;;;;;15.84;100.00;101920.56;5027535;28;20159;-74
2023/09/27 08:33:30;;;;;;;44.25;27.52;;;;;;;15.82;100.00;101932.22;5030859;28;20116;-74
2023/09/27 08:35:55;;;;;;;46.28;27.85;;;;;;;15.92;100.00;101939.19;5032840;28;20549;-74
2023/09/27 08:38:20;;;;;;;40.90;26.67;;;;;;;15.93;100.00;101945.63;5026987;28;20044;-74
2023/09/27 08:40:47;;;;;;;41.72;26.63;;;;;;;16.08;100.00;101952.22;5023966;28;20086;-74
2023/09/27 08:43:15;;;;;;;42.05;25.98;;;;;;;16.03;100.00;101954.22;5023160;28;20078;-73
2023/09/27 08:45:41;;;;;;;41.65;26.52;;;;;;;16.14;100.00;101956.31;5029196;28;20021;-74
2023/09/27 08:48:13;;;;;;;41.72;27.42;;;;;;;16.32;100.00;101953.63;5034237;28;20488;-73
2023/09/27 08:50:38;;;;;;;45.13;26.70;;;;;;;16.44;100.00;101968.28;5036668;28;20461;-73
2023/09/27 08:53:04;;;;;;;39.90;24.88;;;;;;;16.48;100.00;101968.28;5040256;28;20120;-73
2023/09/27 08:55:30;;;;;;;44.53;26.85;;;;;;;16.50;100.00;101965.88;5032857;28;20586;-74
2023/09/27 08:57:56;;;;;;;36.03;22.70;;;;;;;16.48;100.00;101961.84;5026441;28;20150;-73
2023/09/27 09:00:26;;;;;;;38.45;25.02;;;;;;;16.79;100.00;101972.53;5032387;28;20506;-74
2023/09/27 09:02:57;;;;;;;35.17;23.90;;;;;;;16.95;100.00;101974.28;5030284;28;20447;-74
2023/09/27 09:05:24;;;;;;;39.20;23.40;;;;;;;17.01;100.00;101970.69;5023940;28;20545;-74
2023/09/27 09:07:50;;;;;;;36.83;23.35;;;;;;;17.21;100.00;101970.38;5037210;28;20082;-74
2023/09/27 09:10:17;;;;;;;36.45;23.35;;;;;;;17.29;100.00;101974.84;5022288;28;20117;-75
2023/09/27 09:12:43;;;;;;;34.92;22.80;;;;;;;17.36;100.00;101968.41;5029207;28;20039;-74
2023/09/27 09:15:27;;;;;;;37.10;21.98;;;;;;;17.48;100.00;101968.88;5027028;28;20033;-73
2023/09/27 09:17:57;;;;;;;39.90;22.25;;;;;;;17.70;100.00;101968.91;5020896;28;20103;-74
2023/09/27 09:20:32;;;;;;;34.17;19.42;;;;;;;17.85;100.00;101976.25;5028609;28;20073;-74
2023/09/27 09:23:02;;;;;;;27.17;18.33;;;;;;;17.91;100.00;101973.84;5030491;28;20064;-74
2023/09/27 09:25:28;;;;;;;24.55;15.00;;;;;;;17.98;100.00;101959.72;5023843;28;20045;-74
2023/09/27 09:28:04;;;;;;;24.48;15.27;;;;;;;18.20;100.00;101963.34;5029960;28;20063;-74
2023/09/27 09:30:37;;;;;;;28.27;14.88;;;;;;;18.11;100.00;101970.63;5042230;28;20029;-73
2023/09/27 09:33:08;;;;;;;24.58;15.50;;;;;;;18.08;100.00;101964.53;5021666;28;20104;-74
2023/09/27 09:35:34;;;;;;;24.15;15.40;;;;;;;18.22;100.00;101952.41;5020244;28;20431;-74
2023/09/27 09:38:01;;;;;;;24.73;14.77;;;;;;;18.43;100.00;101930.94;5029242;28;20026;-74
2023/09/27 09:40:28;;;;;;;21.55;13.77;;;;;;;18.66;100.00;101936.97;5026905;28;20021;-74
2023/09/27 09:42:53;;;;;;;22.38;13.95;;;;;;;18.63;100.00;101931.31;5027464;28;20029;-74
2023/09/27 09:45:20;;;;;;;27.52;15.48;;;;;;;18.76;100.00;101926.81;5017213;28;20547;-74
2023/09/27 09:47:46;;;;;;;24.45;14.23;;;;;;;18.95;100.00;101936.91;5026627;28;20033;-74
2023/09/27 09:50:18;;;;;;;25.35;16.15;;;;;;;19.03;100.00;101934.88;5024662;28;20061;-74
2023/09/27 09:52:49;;;;;;;20.17;14.30;;;;;;;18.99;100.00;101931.22;5027518;28;20442;-74
2023/09/27 09:55:20;;;;;;;25.65;14.48;;;;;;;19.00;100.00;101927.19;5020730;28;20025;-74
2023/09/27 09:57:46;;;;;;;22.67;15.40;;;;;;;18.92;100.00;101922.75;5029606;28;20256;-74
2023/09/27 10:00:17;;;;;;;26.67;14.98;;;;;;;19.00;100.00;101918.69;5022759;28;20079;-74
2023/09/27 10:03:04;;;;;;;28.13;15.90;;;;;;;19.17;100.00;101900.75;5023904;28;20076;-74
2023/09/27 10:05:37;;;;;;;27.75;18.02;;;;;;;19.13;100.00;101887.81;5023390;28;20025;-74
2023/09/27 10:08:07;;;;;;;26.17;16.55;;;;;;;19.09;100.00;101884.97;5021749;28;20079;-74
2023/09/27 10:10:33;;;;;;;27.35;17.63;;;;;;;19.22;100.00;101882.47;5015983;28;20037;-74
2023/09/27 10:13:01;;;;;;;27.52;17.95;;;;;;;19.31;100.00;101894.19;5017799;28;20034;-74
2023/09/27 10:15:27;;;;;;;28.17;19.10;;;;;;;19.33;100.00;101894.56;5029129;28;20373;-74
2023/09/27 10:17:53;;;;;;;37.13;21.48;;;;;;;19.38;100.00;101893.34;5019905;28;20040;-74
2023/09/27 10:20:22;;;;;;;33.88;21.33;;;;;;;19.28;100.00;101875.94;5029582;28;20409;-74
2023/09/27 10:22:49;;;;;;;30.40;19.50;;;;;;;19.48;100.00;101884.78;5020448;28;20537;-75
2023/09/27 10:25:23;;;;;;;34.42;21.92;;;;;;;19.66;100.00;101881.00;5025994;28;20521;-75
2023/09/27 10:28:04;;;;;;;30.48;21.17;;;;;;;19.88;100.00;101879.63;5024637;28;20104;-74
2023/09/27 10:30:44;;;;;;;27.55;17.63;;;;;;;19.96;100.00;101871.03;5021856;28;20119;-74
2023/09/27 10:33:29;;;;;;;25.83;17.63;;;;;;;20.18;100.00;101871.66;5024281;28;20481;-74
2023/09/27 10:36:01;;;;;;;29.08;19.38;;;;;;;20.16;100.00;101868.44;5026465;28;20093;-74
2023/09/27 10:39:07;;;;;;;27.33;18.10;;;;;;;20.08;100.00;101868.50;5028827;28;20060;-74
2023/09/27 10:41:32;;;;;;;28.98;16.38;;;;;;;20.21;100.00;101870.81;5020593;28;20569;-74
2023/09/27 10:44:01;;;;;;;28.92;18.70;;;;;;;20.37;100.00;101871.06;5035835;28;20082;-74
2023/09/27 10:46:27;;;;;;;25.55;16.23;;;;;;;20.22;100.00;101861.88;5030669;28;20041;-74
2023/09/27 10:49:00;;;;;;;26.67;17.30;;;;;;;20.22;100.00;101849.69;5023512;28;20037;-75
2023/09/27 10:51:26;;;;;;;24.38;16.02;;;;;;;20.30;100.00;101854.06;5037496;28;20336;-75
2023/09/27 10:53:52;;;;;;;20.65;14.13;;;;;;;20.33;100.00;101861.75;5029090;28;20061;-75
2023/09/27 10:56:19;;;;;;;22.95;14.73;;;;;;;20.34;100.00;101857.66;5024677;28;20021;-75
2023/09/27 10:58:45;;;;;;;23.60;15.13;;;;;;;20.30;100.00;101862.59;5028796;28;20504;-75
2023/09/27 11:01:11;;;;;;;26.17;14.27;;;;;;;20.33;100.00;101867.44;5026016;28;20032;-75